Time;durP1;ratioP1;P1;durP2;ratioP2;P2;SDS_P1;SDS_P2;PMS_P1;PMS_P2;Temp;Humidity;BMP_temperature;BMP_pressure;BME280_temperature;BME280_humidity;BME280_pressure;Samples;Min_cycle;Max_cycle;Signal;HPM_P1;HPM_P2
2023/03/28 00:00:58;;;;;;;;;;;21.70;79.70;;;;;;5134950;28;19911;-59
2023/03/28 00:03:26;;;;;;;;;;;21.60;80.10;;;;;;5133948;28;19912;-59
2023/03/28 00:05:55;;;;;;;;;;;21.50;80.50;;;;;;5134377;28;19998;-59
2023/03/28 00:08:20;;;;;;;;;;;21.40;80.50;;;;;;5134812;28;19907;-60
2023/03/28 00:10:46;;;;;;;;;;;21.30;81.20;;;;;;5119270;28;19934;-60
2023/03/28 00:13:12;;;;;;;;;;;21.20;81.20;;;;;;5134852;28;19907;-60
2023/03/28 00:15:39;;;;;;;;;;;21.20;81.70;;;;;;5134566;28;20346;-60
2023/03/28 00:18:04;;;;;;;;;;;21.10;81.90;;;;;;5131797;28;19958;-60
2023/03/28 00:20:30;;;;;;;;;;;21.00;82.00;;;;;;5134242;28;20293;-60
2023/03/28 00:22:56;;;;;;;;;;;21.00;82.50;;;;;;5134584;28;19907;-60
2023/03/28 00:25:22;;;;;;;;;;;21.00;82.50;;;;;;5132977;28;20362;-60
2023/03/28 00:27:47;;;;;;;;;;;21.10;82.50;;;;;;5133332;28;20386;-60
2023/03/28 00:30:13;;;;;;;;;;;21.20;82.00;;;;;;5116422;28;20040;-60
2023/03/28 00:32:39;;;;;;;;;;;21.30;81.70;;;;;;5134833;28;19919;-60
2023/03/28 00:35:04;;;;;;;;;;;21.50;81.20;;;;;;5134534;28;19986;-60
2023/03/28 00:37:30;;;;;;;;;;;21.70;80.80;;;;;;5131269;27;19915;-60
2023/03/28 00:39:58;;;;;;;;;;;21.80;79.90;;;;;;5136541;27;19919;-60
2023/03/28 00:42:24;;;;;;;;;;;21.80;79.70;;;;;;5120046;27;19973;-61
2023/03/28 00:44:50;;;;;;;;;;;21.80;79.70;;;;;;5138472;27;19908;-60
2023/03/28 00:47:24;;;;;;;;;;;21.80;79.50;;;;;;5138465;27;19908;-60
2023/03/28 00:49:51;;;;;;;;;;;21.70;79.90;;;;;;5136807;27;19953;-59
2023/03/28 00:52:18;;;;;;;;;;;21.60;79.80;;;;;;5117752;28;19908;-60
2023/03/28 00:54:44;;;;;;;;;;;21.60;79.70;;;;;;5118042;28;19907;-60
2023/03/28 00:57:11;;;;;;;;;;;21.50;80.00;;;;;;5117337;28;20259;-60
2023/03/28 00:59:39;;;;;;;;;;;21.40;78.70;;;;;;5128963;27;20259;-61
2023/03/28 01:02:06;;;;;;;;;;;21.30;81.10;;;;;;5137843;27;19915;-60
2023/03/28 01:04:51;;;;;;;;;;;21.30;81.30;;;;;;5137824;27;19911;-60
2023/03/28 01:07:17;;;;;;;;;;;21.30;81.60;;;;;;5135121;27;19918;-61
2023/03/28 01:09:43;;;;;;;;;;;21.40;81.30;;;;;;5136384;27;19911;-61
2023/03/28 01:12:09;;;;;;;;;;;21.50;80.80;;;;;;5137955;27;19907;-60
2023/03/28 01:14:36;;;;;;;;;;;21.70;80.50;;;;;;5119425;27;19907;-60
2023/03/28 01:17:02;;;;;;;;;;;21.80;80.10;;;;;;5133951;27;20012;-60
2023/03/28 01:19:30;;;;;;;;;;;22.00;79.80;;;;;;5137877;27;20358;-61
2023/03/28 01:22:05;;;;;;;;;;;22.10;79.40;;;;;;5137429;27;19998;-61
2023/03/28 01:24:49;;;;;;;;;;;22.20;79.10;;;;;;5136922;27;19915;-59
2023/03/28 01:27:18;;;;;;;;;;;22.20;79.20;;;;;;5132859;27;19911;-60
2023/03/28 01:30:00;;;;;;;;;;;22.10;79.00;;;;;;5135653;27;19907;-60
2023/03/28 01:32:49;;;;;;;;;;;22.00;79.00;;;;;;5135781;27;19988;-60
2023/03/28 01:35:33;;;;;;;;;;;21.90;79.50;;;;;;5134734;27;20350;-60
2023/03/28 01:38:08;;;;;;;;;;;21.80;79.80;;;;;;5134470;27;19915;-60
2023/03/28 01:41:00;;;;;;;;;;;21.70;79.70;;;;;;5135046;27;19950;-60
2023/03/28 01:43:29;;;;;;;;;;;21.60;79.90;;;;;;5110635;27;20002;-60
2023/03/28 01:46:10;;;;;;;;;;;21.50;80.00;;;;;;5133387;27;20119;-60
2023/03/28 01:48:44;;;;;;;;;;;21.40;80.50;;;;;;5134512;27;19912;-60
2023/03/28 01:51:19;;;;;;;;;;;21.30;81.00;;;;;;5135207;27;19907;-60
2023/03/28 01:53:54;;;;;;;;;;;21.30;81.10;;;;;;5135496;27;20007;-60
2023/03/28 01:56:38;;;;;;;;;;;21.30;81.10;;;;;;5136207;27;20425;-60
2023/03/28 01:59:18;;;;;;;;;;;21.30;81.20;;;;;;5137375;27;19960;-61
2023/03/28 02:01:53;;;;;;;;;;;21.50;80.90;;;;;;5118644;27;20269;-60
2023/03/28 02:04:20;;;;;;;;;;;21.60;80.30;;;;;;5136978;27;19907;-60
2023/03/28 02:06:48;;;;;;;;;;;21.80;80.20;;;;;;5135361;27;20422;-61
2023/03/28 02:09:14;;;;;;;;;;;21.90;79.70;;;;;;5136878;27;20002;-60
2023/03/28 02:11:40;;;;;;;;;;;22.00;79.40;;;;;;5136487;27;20318;-60
2023/03/28 02:14:07;;;;;;;;;;;22.00;79.20;;;;;;5136741;27;19936;-60
2023/03/28 02:16:35;;;;;;;;;;;22.00;79.10;;;;;;5135563;27;20369;-60
2023/03/28 02:19:02;;;;;;;;;;;21.90;79.20;;;;;;5136624;27;19960;-60
2023/03/28 02:21:35;;;;;;;;;;;21.90;79.00;;;;;;5136350;27;19911;-60
2023/03/28 02:24:00;;;;;;;;;;;21.80;79.40;;;;;;5118133;27;19911;-60
2023/03/28 02:26:26;;;;;;;;;;;21.70;79.60;;;;;;5135248;27;19967;-60
2023/03/28 02:28:54;;;;;;;;;;;21.60;80.00;;;;;;5118088;27;20015;-60
2023/03/28 02:31:21;;;;;;;;;;;21.50;79.80;;;;;;5136466;27;19912;-60
2023/03/28 02:33:47;;;;;;;;;;;21.40;80.00;;;;;;5136390;27;19914;-61
2023/03/28 02:36:31;;;;;;;;;;;21.40;80.50;;;;;;5135533;27;19912;-60
2023/03/28 02:39:06;;;;;;;;;;;21.30;80.70;;;;;;5136036;27;20006;-60
2023/03/28 02:42:01;;;;;;;;;;;21.40;80.70;;;;;;5136151;27;19923;-60
2023/03/28 02:44:26;;;;;;;;;;;21.50;80.10;;;;;;5118507;27;19976;-60
2023/03/28 02:47:10;;;;;;;;;;;21.60;80.20;;;;;;5135227;27;19912;-60
2023/03/28 02:49:36;;;;;;;;;;;21.70;79.60;;;;;;5136074;27;19911;-60
2023/03/28 02:52:14;;;;;;;;;;;21.90;79.20;;;;;;5136373;27;19911;-60
2023/03/28 02:54:48;;;;;;;;;;;22.00;79.00;;;;;;5135982;27;19968;-60
2023/03/28 02:57:29;;;;;;;;;;;22.10;79.10;;;;;;5135075;27;20371;-60
2023/03/28 02:59:56;;;;;;;;;;;22.00;78.90;;;;;;5135407;27;20362;-60
2023/03/28 03:02:22;;;;;;;;;;;22.00;79.10;;;;;;5135026;27;19972;-60
2023/03/28 03:04:56;;;;;;;;;;;21.90;79.50;;;;;;5134129;27;19911;-60
2023/03/28 03:07:22;;;;;;;;;;;21.80;79.70;;;;;;5114293;27;19919;-60
2023/03/28 03:09:52;;;;;;;;;;;21.70;79.70;;;;;;5133389;27;19912;-60
2023/03/28 03:12:18;;;;;;;;;;;21.60;80.10;;;;;;5135631;27;20059;-61
2023/03/28 03:14:43;;;;;;;;;;;21.50;80.10;;;;;;5135256;27;20372;-60
2023/03/28 03:17:09;;;;;;;;;;;21.40;80.10;;;;;;5134582;27;19968;-60
2023/03/28 03:19:35;;;;;;;;;;;21.40;80.90;;;;;;5135476;27;20270;-60
2023/03/28 03:22:01;;;;;;;;;;;21.40;80.40;;;;;;5135210;27;19908;-60
2023/03/28 03:24:27;;;;;;;;;;;21.40;80.50;;;;;;5135504;27;19908;-61
2023/03/28 03:26:52;;;;;;;;;;;21.60;80.60;;;;;;5134543;27;19911;-60
2023/03/28 03:29:18;;;;;;;;;;;21.70;79.90;;;;;;5135367;27;19929;-60
2023/03/28 03:31:43;;;;;;;;;;;21.90;79.60;;;;;;5116743;27;19915;-60
2023/03/28 03:34:09;;;;;;;;;;;22.00;79.30;;;;;;5134956;27;19908;-60
2023/03/28 03:36:34;;;;;;;;;;;22.10;79.20;;;;;;5133856;27;19922;-61
2023/03/28 03:39:00;;;;;;;;;;;22.10;79.00;;;;;;5135005;27;19961;-61
2023/03/28 03:41:25;;;;;;;;;;;22.00;79.10;;;;;;5135140;27;20009;-60
2023/03/28 03:43:50;;;;;;;;;;;21.90;79.20;;;;;;5134843;27;19912;-60
2023/03/28 03:46:16;;;;;;;;;;;21.80;79.70;;;;;;5133427;27;19908;-60
2023/03/28 03:48:42;;;;;;;;;;;21.70;79.90;;;;;;5135129;27;19915;-60
2023/03/28 03:51:07;;;;;;;;;;;21.60;79.90;;;;;;5134825;27;19907;-60
2023/03/28 03:53:33;;;;;;;;;;;21.50;80.40;;;;;;5134746;28;19911;-61
2023/03/28 03:56:00;;;;;;;;;;;21.40;80.70;;;;;;5135042;28;20266;-60
2023/03/28 03:58:25;;;;;;;;;;;21.30;80.60;;;;;;5134167;28;19912;-60
2023/03/28 04:00:51;;;;;;;;;;;21.30;80.60;;;;;;5134754;28;19923;-60
2023/03/28 04:03:16;;;;;;;;;;;21.30;81.60;;;;;;5116581;28;20014;-60
2023/03/28 04:05:42;;;;;;;;;;;21.40;81.30;;;;;;5133456;28;20350;-61
2023/03/28 04:08:07;;;;;;;;;;;21.50;81.10;;;;;;5134524;28;19956;-61
2023/03/28 04:10:33;;;;;;;;;;;21.70;80.70;;;;;;5134597;28;19930;-60
2023/03/28 04:12:58;;;;;;;;;;;21.90;80.30;;;;;;5137852;27;19969;-60
2023/03/28 04:15:24;;;;;;;;;;;22.00;79.60;;;;;;5137718;27;20006;-60
2023/03/28 04:17:51;;;;;;;;;;;22.10;79.50;;;;;;5120358;27;20282;-61
2023/03/28 04:20:18;;;;;;;;;;;22.10;79.50;;;;;;5138941;27;19912;-60
2023/03/28 04:22:44;;;;;;;;;;;22.00;79.60;;;;;;5138666;27;19987;-61
2023/03/28 04:25:10;;;;;;;;;;;21.90;79.20;;;;;;5138016;27;19908;-60
2023/03/28 04:27:35;;;;;;;;;;;21.80;79.40;;;;;;5138811;27;19912;-60
2023/03/28 04:30:01;;;;;;;;;;;21.70;79.80;;;;;;5138471;27;20281;-61
2023/03/28 04:32:26;;;;;;;;;;;21.60;80.10;;;;;;5138595;27;19907;-61
2023/03/28 04:34:52;;;;;;;;;;;21.50;80.60;;;;;;5138558;27;19997;-62
2023/03/28 04:37:18;;;;;;;;;;;21.40;80.70;;;;;;5119075;27;20372;-61
2023/03/28 04:39:46;;;;;;;;;;;21.30;80.30;;;;;;5136007;27;19916;-60
2023/03/28 04:42:14;;;;;;;;;;;21.20;80.70;;;;;;5137406;27;19927;-60
2023/03/28 04:44:39;;;;;;;;;;;21.20;81.00;;;;;;5119857;27;20354;-60
2023/03/28 04:47:07;;;;;;;;;;;21.30;80.50;;;;;;5135616;27;19939;-60
2023/03/28 04:49:35;;;;;;;;;;;21.40;80.00;;;;;;5135204;27;21444;-60
2023/03/28 04:52:00;;;;;;;;;;;21.60;78.80;;;;;;5135559;27;19995;-61
2023/03/28 04:54:26;;;;;;;;;;;21.80;77.20;;;;;;5135064;27;19911;-59
2023/03/28 04:56:52;;;;;;;;;;;22.00;76.20;;;;;;5132618;27;19926;-60
2023/03/28 04:59:17;;;;;;;;;;;22.10;77.00;;;;;;5122710;27;19927;-61
2023/03/28 05:01:52;;;;;;;;;;;22.10;79.40;;;;;;5133182;27;19964;-70
2023/03/28 05:04:18;;;;;;;;;;;22.00;77.80;;;;;;5135587;27;19924;-72
2023/03/28 05:06:44;;;;;;;;;;;21.80;73.80;;;;;;5135418;27;19998;-72
2023/03/28 05:09:11;;;;;;;;;;;21.60;77.90;;;;;;5136680;27;19918;-72
2023/03/28 05:11:37;;;;;;;;;;;21.60;79.50;;;;;;5137360;27;19908;-69
2023/03/28 05:14:02;;;;;;;;;;;21.50;80.00;;;;;;5136349;27;19911;-68
2023/03/28 05:16:28;;;;;;;;;;;21.40;80.30;;;;;;5110437;27;19923;-75
2023/03/28 05:18:55;;;;;;;;;;;21.30;80.20;;;;;;5137441;27;19986;-78
2023/03/28 05:21:20;;;;;;;;;;;21.30;80.80;;;;;;5118567;27;19911;-71
2023/03/28 05:23:46;;;;;;;;;;;21.20;80.90;;;;;;5136711;27;19908;-71
2023/03/28 05:26:11;;;;;;;;;;;21.30;81.30;;;;;;5136408;27;19975;-69
2023/03/28 05:28:37;;;;;;;;;;;21.40;81.10;;;;;;5136181;27;19951;-69
2023/03/28 05:31:02;;;;;;;;;;;21.50;80.60;;;;;;5135833;27;19907;-69
2023/03/28 05:33:31;;;;;;;;;;;21.70;80.40;;;;;;5137187;27;20262;-69
2023/03/28 05:35:56;;;;;;;;;;;21.90;79.80;;;;;;5137065;27;19950;-70
2023/03/28 05:38:22;;;;;;;;;;;22.00;79.50;;;;;;5135917;27;19951;-71
2023/03/28 05:40:47;;;;;;;;;;;22.10;79.30;;;;;;5136776;27;19923;-70
2023/03/28 05:43:13;;;;;;;;;;;22.10;79.80;;;;;;5137350;27;20346;-66
2023/03/28 05:45:38;;;;;;;;;;;22.00;79.40;;;;;;5137143;27;19903;-66
2023/03/28 05:48:04;;;;;;;;;;;21.90;79.70;;;;;;5136910;27;19904;-67
2023/03/28 05:50:30;;;;;;;;;;;21.80;79.90;;;;;;5134905;27;20385;-72
2023/03/28 05:52:56;;;;;;;;;;;21.70;80.20;;;;;;5136336;27;19908;-70
2023/03/28 05:55:21;;;;;;;;;;;21.60;80.60;;;;;;5136887;27;19963;-79
2023/03/28 05:57:47;;;;;;;;;;;21.50;81.10;;;;;;5136187;27;20277;-73
2023/03/28 06:00:13;;;;;;;;;;;21.40;81.20;;;;;;5136221;27;19918;-78
2023/03/28 06:02:39;;;;;;;;;;;21.30;81.40;;;;;;5136545;27;20372;-75
2023/03/28 06:05:06;;;;;;;;;;;21.20;81.70;;;;;;5117203;27;20310;-73
2023/03/28 06:07:31;;;;;;;;;;;21.10;81.80;;;;;;5135116;27;19911;-70
2023/03/28 06:09:57;;;;;;;;;;;21.10;82.10;;;;;;5136660;27;19942;-71
2023/03/28 06:12:22;;;;;;;;;;;21.10;82.20;;;;;;5136437;27;19903;-70
2023/03/28 06:14:48;;;;;;;;;;;21.20;82.30;;;;;;5136257;27;19903;-75
2023/03/28 06:17:14;;;;;;;;;;;21.30;82.00;;;;;;5134285;27;19907;-81
2023/03/28 06:19:39;;;;;;;;;;;21.40;81.90;;;;;;5136835;27;19911;-77
2023/03/28 06:22:05;;;;;;;;;;;21.50;81.60;;;;;;5136400;27;19965;-77
2023/03/28 06:24:30;;;;;;;;;;;21.50;81.30;;;;;;5136767;27;19947;-73
2023/03/28 06:26:56;;;;;;;;;;;21.60;81.70;;;;;;5116805;27;19903;-75
2023/03/28 06:29:21;;;;;;;;;;;21.50;81.10;;;;;;5136440;27;19918;-76
2023/03/28 06:31:47;;;;;;;;;;;21.50;81.30;;;;;;5134219;27;19910;-76
2023/03/28 06:34:12;;;;;;;;;;;21.50;81.20;;;;;;5135130;27;19911;-82
2023/03/28 06:36:38;;;;;;;;;;;21.40;81.40;;;;;;5133906;27;20018;-77
2023/03/28 06:39:04;;;;;;;;;;;21.40;81.50;;;;;;5135211;27;19923;-76
2023/03/28 06:41:29;;;;;;;;;;;21.30;81.70;;;;;;5134140;27;19916;-64
2023/03/28 06:43:55;;;;;;;;;;;21.20;82.00;;;;;;5131921;27;19952;-68
2023/03/28 06:46:20;;;;;;;;;;;21.20;82.10;;;;;;5134564;27;19915;-66
2023/03/28 06:48:46;;;;;;;;;;;21.10;82.30;;;;;;5135145;27;19903;-71
2023/03/28 06:51:12;;;;;;;;;;;21.10;82.40;;;;;;5117077;27;19912;-71
2023/03/28 06:53:37;;;;;;;;;;;21.20;82.40;;;;;;5132366;27;19915;-67
2023/03/28 06:56:03;;;;;;;;;;;21.30;82.10;;;;;;5133352;27;19938;-69
2023/03/28 06:58:29;;;;;;;;;;;21.50;81.70;;;;;;5134273;27;19914;-71
2023/03/28 07:00:57;;;;;;;;;;;21.70;81.30;;;;;;5117023;27;19908;-66
2023/03/28 07:03:22;;;;;;;;;;;21.90;80.80;;;;;;5116876;27;19956;-79
2023/03/28 07:05:48;;;;;;;;;;;21.90;80.50;;;;;;5132526;27;19926;-74
2023/03/28 07:08:13;;;;;;;;;;;21.90;80.40;;;;;;5117209;27;20361;-66
2023/03/28 07:10:41;;;;;;;;;;;21.90;80.70;;;;;;5116653;27;19912;-64
2023/03/28 07:13:07;;;;;;;;;;;21.80;80.80;;;;;;5133427;27;19994;-65
2023/03/28 07:15:33;;;;;;;;;;;21.70;81.10;;;;;;5134011;27;20352;-70
2023/03/28 07:17:58;;;;;;;;;;;21.60;81.30;;;;;;5114823;27;19915;-68
2023/03/28 07:20:24;;;;;;;;;;;21.50;81.30;;;;;;5115671;27;20002;-70
2023/03/28 07:22:49;;;;;;;;;;;21.50;81.70;;;;;;5133738;27;20003;-79
2023/03/28 07:25:15;;;;;;;;;;;21.30;82.20;;;;;;5135110;27;19911;-66
2023/03/28 07:27:41;;;;;;;;;;;21.20;82.10;;;;;;5133254;27;19915;-67
2023/03/28 07:30:07;;;;;;;;;;;21.20;82.30;;;;;;5135145;27;19903;-74
2023/03/28 07:32:33;;;;;;;;;;;21.10;82.50;;;;;;5132728;27;20345;-75
2023/03/28 07:34:59;;;;;;;;;;;21.20;82.80;;;;;;5134432;27;19908;-74
2023/03/28 07:37:25;;;;;;;;;;;21.20;82.70;;;;;;5115633;28;19960;-66
2023/03/28 07:39:50;;;;;;;;;;;21.20;82.70;;;;;;5134899;27;20265;-73
2023/03/28 07:42:16;;;;;;;;;;;21.30;82.50;;;;;;5133129;27;19916;-77
2023/03/28 07:44:41;;;;;;;;;;;21.50;82.10;;;;;;5133439;27;19911;-79
2023/03/28 07:47:07;;;;;;;;;;;21.70;81.50;;;;;;5133256;27;19935;-74
2023/03/28 07:49:32;;;;;;;;;;;21.90;81.10;;;;;;5115952;28;19914;-76
2023/03/28 07:51:58;;;;;;;;;;;22.00;81.60;;;;;;5134189;27;19916;-68
2023/03/28 07:54:25;;;;;;;;;;;22.00;80.90;;;;;;5114230;28;20403;-69
2023/03/28 07:56:50;;;;;;;;;;;21.90;80.50;;;;;;5131796;28;20015;-69
2023/03/28 07:59:16;;;;;;;;;;;21.90;80.80;;;;;;5132951;28;20385;-70
2023/03/28 08:01:42;;;;;;;;;;;21.80;81.00;;;;;;5132262;28;19915;-72
2023/03/28 08:04:08;;;;;;;;;;;21.70;81.50;;;;;;5132950;28;19915;-66
2023/03/28 08:06:37;;;;;;;;;;;21.60;81.10;;;;;;5130863;28;19919;-64
2023/03/28 08:09:07;;;;;;;;;;;21.50;81.30;;;;;;5122746;27;19912;-67
2023/03/28 08:11:33;;;;;;;;;;;21.50;81.50;;;;;;5115536;28;20259;-68
2023/03/28 08:13:59;;;;;;;;;;;21.40;81.80;;;;;;5133924;27;19912;-69
2023/03/28 08:16:25;;;;;;;;;;;21.40;82.00;;;;;;5119483;28;19919;-67
2023/03/28 08:18:50;;;;;;;;;;;21.30;81.90;;;;;;5132466;28;20281;-66
2023/03/28 08:21:16;;;;;;;;;;;21.40;82.10;;;;;;5132520;28;19911;-67
2023/03/28 08:23:43;;;;;;;;;;;21.50;81.90;;;;;;5132782;28;19968;-67
2023/03/28 08:26:09;;;;;;;;;;;21.70;81.40;;;;;;5131781;28;19911;-65
2023/03/28 08:28:35;;;;;;;;;;;22.00;80.80;;;;;;5134231;28;19908;-67
2023/03/28 08:31:01;;;;;;;;;;;22.20;80.20;;;;;;5133592;28;19958;-70
2023/03/28 08:33:27;;;;;;;;;;;22.20;80.00;;;;;;5134656;28;20314;-67
2023/03/28 08:35:54;;;;;;;;;;;22.20;80.00;;;;;;5132701;28;19984;-72
2023/03/28 08:38:20;;;;;;;;;;;22.20;80.50;;;;;;5133282;28;19915;-71
2023/03/28 08:41:05;;;;;;;;;;;22.10;80.50;;;;;;5132808;28;20397;-71
2023/03/28 08:44:00;;;;;;;;;;;21.90;80.40;;;;;;5116200;28;19907;-71
2023/03/28 08:46:26;;;;;;;;;;;21.80;80.70;;;;;;5061578;28;19912;-66
2023/03/28 08:48:52;;;;;;;;;;;21.70;81.20;;;;;;5127461;28;20002;-70
2023/03/28 08:51:41;;;;;;;;;;;21.60;81.30;;;;;;5133362;28;20374;-70
2023/03/28 08:54:16;;;;;;;;;;;21.50;81.50;;;;;;5120746;28;20256;-71
2023/03/28 08:56:43;;;;;;;;;;;21.50;81.80;;;;;;5116067;28;20354;-73
2023/03/28 08:59:20;;;;;;;;;;;21.40;82.10;;;;;;5132024;27;19994;-69
2023/03/28 09:01:46;;;;;;;;;;;21.40;82.20;;;;;;5119344;27;19958;-65
2023/03/28 09:04:19;;;;;;;;;;;21.30;82.50;;;;;;5135735;27;19923;-69
2023/03/28 09:06:47;;;;;;;;;;;21.20;82.70;;;;;;5136608;27;20389;-69
2023/03/28 09:09:33;;;;;;;;;;;21.30;82.60;;;;;;5137525;27;19907;-67
2023/03/28 09:12:16;;;;;;;;;;;21.40;82.20;;;;;;5136164;27;19919;-67
2023/03/28 09:14:53;;;;;;;;;;;21.70;81.90;;;;;;5118460;27;19916;-67
2023/03/28 09:17:42;;;;;;;;;;;21.90;81.10;;;;;;5135719;27;19923;-66
2023/03/28 09:20:26;;;;;;;;;;;22.10;80.80;;;;;;5134378;27;19968;-68
2023/03/28 09:23:01;;;;;;;;;;;22.10;80.60;;;;;;5135954;27;20018;-68
2023/03/28 09:25:36;;;;;;;;;;;22.10;80.80;;;;;;5128186;27;19911;-64
2023/03/28 09:28:01;;;;;;;;;;;22.00;80.80;;;;;;5124735;27;19919;-67
2023/03/28 09:30:32;;;;;;;;;;;21.90;81.00;;;;;;5134246;27;20010;-64
2023/03/28 09:32:59;;;;;;;;;;;21.90;81.00;;;;;;5137141;27;20315;-63
2023/03/28 09:35:26;;;;;;;;;;;21.80;81.40;;;;;;5135165;27;19923;-62
2023/03/28 09:37:53;;;;;;;;;;;21.60;81.60;;;;;;5135957;27;20014;-64
2023/03/28 09:40:23;;;;;;;;;;;21.60;81.80;;;;;;5136186;27;19911;-63
2023/03/28 09:43:03;;;;;;;;;;;21.50;81.90;;;;;;5136233;27;19916;-65
2023/03/28 09:45:39;;;;;;;;;;;21.40;82.00;;;;;;5135706;27;20258;-66
2023/03/28 09:48:10;;;;;;;;;;;21.40;82.40;;;;;;5135095;27;19912;-73
2023/03/28 09:50:35;;;;;;;;;;;21.30;82.50;;;;;;5116653;27;19911;-70
2023/03/28 09:53:01;;;;;;;;;;;21.30;82.60;;;;;;5135597;27;19922;-67
2023/03/28 09:55:28;;;;;;;;;;;21.40;82.70;;;;;;5134605;27;19911;-65
2023/03/28 09:58:03;;;;;;;;;;;21.60;82.90;;;;;;5129933;27;20286;-64
2023/03/28 10:00:32;;;;;;;;;;;21.80;81.70;;;;;;5135259;27;20370;-64
2023/03/28 10:02:58;;;;;;;;;;;22.00;81.20;;;;;;5116189;27;19920;-67
2023/03/28 10:05:33;;;;;;;;;;;22.10;80.90;;;;;;5118746;27;19907;-64
2023/03/28 10:08:01;;;;;;;;;;;22.20;80.80;;;;;;5118583;27;20389;-66
2023/03/28 10:10:27;;;;;;;;;;;22.10;80.90;;;;;;5118235;27;19907;-71
2023/03/28 10:12:57;;;;;;;;;;;22.10;80.80;;;;;;5135304;27;20270;-70
2023/03/28 10:15:29;;;;;;;;;;;22.00;80.90;;;;;;5134164;27;19912;-66
2023/03/28 10:17:54;;;;;;;;;;;21.90;81.10;;;;;;5132850;27;19925;-65
2023/03/28 10:20:20;;;;;;;;;;;21.80;81.20;;;;;;5134042;27;19919;-66
2023/03/28 10:22:48;;;;;;;;;;;21.70;81.40;;;;;;5133871;27;19968;-65
2023/03/28 10:25:19;;;;;;;;;;;21.70;81.80;;;;;;5114506;27;19919;-68
2023/03/28 10:27:46;;;;;;;;;;;21.60;82.30;;;;;;5120256;27;19911;-67
2023/03/28 10:30:25;;;;;;;;;;;21.50;81.80;;;;;;5112803;27;19946;-67
2023/03/28 10:33:16;;;;;;;;;;;21.40;82.20;;;;;;5117653;27;19907;-68
2023/03/28 10:35:43;;;;;;;;;;;21.30;82.10;;;;;;5110597;27;20005;-64
2023/03/28 10:38:14;;;;;;;;;;;21.30;82.30;;;;;;5134685;27;19923;-64
2023/03/28 10:40:40;;;;;;;;;;;21.30;82.30;;;;;;5114854;27;19920;-65
2023/03/28 10:43:10;;;;;;;;;;;21.40;82.40;;;;;;5135815;27;19919;-65
2023/03/28 10:45:37;;;;;;;;;;;21.50;81.80;;;;;;5134520;27;20007;-62
2023/03/28 10:48:09;;;;;;;;;;;21.70;81.60;;;;;;5134002;27;19998;-64
2023/03/28 10:50:36;;;;;;;;;;;21.80;81.00;;;;;;5133066;27;19966;-67
2023/03/28 10:53:11;;;;;;;;;;;22.00;80.40;;;;;;5132478;27;20060;-73
2023/03/28 10:55:39;;;;;;;;;;;22.10;80.30;;;;;;5133490;27;19918;-71
2023/03/28 10:58:17;;;;;;;;;;;22.10;80.00;;;;;;5132503;27;19916;-71
2023/03/28 11:00:50;;;;;;;;;;;22.10;79.10;;;;;;5134901;27;20027;-72
2023/03/28 11:03:34;;;;;;;;;;;22.00;80.00;;;;;;5117078;27;19911;-77
2023/03/28 11:06:05;;;;;;;;;;;21.90;80.20;;;;;;5133257;27;19908;-73
2023/03/28 11:08:31;;;;;;;;;;;21.80;80.40;;;;;;5133342;27;20006;-70
2023/03/28 11:10:56;;;;;;;;;;;21.70;80.50;;;;;;5134757;27;20002;-74
2023/03/28 11:13:24;;;;;;;;;;;21.60;81.00;;;;;;5135126;27;19991;-73
2023/03/28 11:15:50;;;;;;;;;;;21.60;81.20;;;;;;5117035;27;19915;-69
2023/03/28 11:18:34;;;;;;;;;;;21.50;81.30;;;;;;5134351;27;19919;-71
2023/03/28 11:21:00;;;;;;;;;;;21.40;81.50;;;;;;5133386;27;19911;-71
2023/03/28 11:23:35;;;;;;;;;;;21.30;81.80;;;;;;5115742;27;19911;-62
2023/03/28 11:26:09;;;;;;;;;;;21.30;82.10;;;;;;5133953;27;19952;-70
2023/03/28 11:28:53;;;;;;;;;;;21.30;82.00;;;;;;5134338;27;20044;-71
2023/03/28 11:31:22;;;;;;;;;;;21.30;82.10;;;;;;5134674;27;20258;-65
2023/03/28 11:33:48;;;;;;;;;;;21.40;82.20;;;;;;5134954;27;20358;-71
2023/03/28 11:36:15;;;;;;;;;;;21.50;81.80;;;;;;5134879;27;19915;-67
2023/03/28 11:38:43;;;;;;;;;;;21.70;81.30;;;;;;5135341;27;19912;-70
2023/03/28 11:41:14;;;;;;;;;;;21.90;81.10;;;;;;5134990;27;19920;-70
2023/03/28 11:43:43;;;;;;;;;;;22.10;80.50;;;;;;5115923;27;20006;-66
2023/03/28 11:46:28;;;;;;;;;;;22.20;80.20;;;;;;5133953;27;19912;-67
2023/03/28 11:49:12;;;;;;;;;;;22.30;80.00;;;;;;5135138;27;19908;-65
2023/03/28 11:51:41;;;;;;;;;;;22.30;80.00;;;;;;5135023;27;19915;-68
2023/03/28 11:54:10;;;;;;;;;;;22.20;80.00;;;;;;5133587;28;19912;-71
2023/03/28 11:56:35;;;;;;;;;;;22.20;80.20;;;;;;5113876;27;20328;-71
2023/03/28 11:59:04;;;;;;;;;;;22.20;80.30;;;;;;5127668;28;19908;-76
2023/03/28 12:01:32;;;;;;;;;;;22.00;80.50;;;;;;5134975;28;19908;-69
2023/03/28 12:04:10;;;;;;;;;;;21.90;80.70;;;;;;5133403;28;19911;-68
2023/03/28 12:06:46;;;;;;;;;;;21.80;80.90;;;;;;5117576;28;20373;-63
2023/03/28 12:09:16;;;;;;;;;;;21.80;81.10;;;;;;5131118;28;19960;-65
2023/03/28 12:11:54;;;;;;;;;;;21.70;81.30;;;;;;5134076;28;19999;-66
2023/03/28 12:14:20;;;;;;;;;;;21.70;81.50;;;;;;5132228;28;20362;-65
2023/03/28 12:16:48;;;;;;;;;;;21.60;81.70;;;;;;5133730;28;20040;-64
2023/03/28 12:19:17;;;;;;;;;;;21.60;81.80;;;;;;5133005;28;20274;-71
2023/03/28 12:21:45;;;;;;;;;;;21.60;81.80;;;;;;5133177;28;19911;-70
2023/03/28 12:24:22;;;;;;;;;;;21.70;81.60;;;;;;5116243;28;19907;-65
2023/03/28 12:27:06;;;;;;;;;;;21.80;81.50;;;;;;5132670;28;19911;-66
2023/03/28 12:29:39;;;;;;;;;;;21.90;81.20;;;;;;5132356;28;20003;-65
2023/03/28 12:32:05;;;;;;;;;;;22.00;81.10;;;;;;5131157;27;19926;-65
2023/03/28 12:34:31;;;;;;;;;;;22.00;80.90;;;;;;5121920;27;19912;-76
2023/03/28 12:37:02;;;;;;;;;;;22.10;80.80;;;;;;5136786;27;19935;-67
2023/03/28 12:39:34;;;;;;;;;;;22.10;80.70;;;;;;5136208;27;19911;-69
2023/03/28 12:42:01;;;;;;;;;;;22.10;80.70;;;;;;5138026;27;20423;-68
2023/03/28 12:44:27;;;;;;;;;;;22.10;80.50;;;;;;5137257;27;19919;-67
2023/03/28 12:47:01;;;;;;;;;;;22.00;80.60;;;;;;5117837;27;19912;-68
2023/03/28 12:49:32;;;;;;;;;;;22.00;80.90;;;;;;5118367;27;20304;-73
2023/03/28 12:52:00;;;;;;;;;;;21.90;81.00;;;;;;5135977;27;20343;-65
2023/03/28 12:54:27;;;;;;;;;;;21.90;81.20;;;;;;5135699;27;20002;-70
2023/03/28 12:57:08;;;;;;;;;;;21.80;81.40;;;;;;5136794;27;19920;-72
2023/03/28 12:59:40;;;;;;;;;;;21.70;81.60;;;;;;5134861;27;20109;-71
2023/03/28 13:02:17;;;;;;;;;;;21.70;81.90;;;;;;5134345;27;20382;-64
2023/03/28 13:05:02;;;;;;;;;;;21.60;81.90;;;;;;5127587;27;19911;-67
2023/03/28 13:07:27;;;;;;;;;;;21.60;82.00;;;;;;5135260;27;20282;-67
2023/03/28 13:10:11;;;;;;;;;;;21.60;82.10;;;;;;5134127;27;19912;-66
2023/03/28 13:12:55;;;;;;;;;;;21.60;81.90;;;;;;5119065;27;20247;-70
2023/03/28 13:15:26;;;;;;;;;;;21.60;82.00;;;;;;5135824;27;20304;-68
2023/03/28 13:18:10;;;;;;;;;;;21.70;81.90;;;;;;5116718;27;20010;-64
2023/03/28 13:20:42;;;;;;;;;;;21.70;81.80;;;;;;5135664;27;19913;-65
2023/03/28 13:23:08;;;;;;;;;;;21.80;81.70;;;;;;5137783;27;19996;-64
2023/03/28 13:25:34;;;;;;;;;;;21.90;81.80;;;;;;5136202;27;19977;-67
2023/03/28 13:28:11;;;;;;;;;;;21.90;81.50;;;;;;5134079;27;19964;-66
2023/03/28 13:30:39;;;;;;;;;;;22.00;81.20;;;;;;5135397;27;19978;-65
2023/03/28 13:33:19;;;;;;;;;;;22.00;81.00;;;;;;5135148;27;20294;-69
2023/03/28 13:35:47;;;;;;;;;;;22.00;81.00;;;;;;5117273;27;19915;-68
2023/03/28 13:38:28;;;;;;;;;;;22.00;80.90;;;;;;5135874;27;19919;-68
2023/03/28 13:40:54;;;;;;;;;;;22.00;80.80;;;;;;5114869;27;19919;-71
2023/03/28 13:43:28;;;;;;;;;;;22.00;80.90;;;;;;5137169;27;20350;-70
2023/03/28 13:45:58;;;;;;;;;;;21.90;81.10;;;;;;5116821;27;19919;-67
2023/03/28 13:48:27;;;;;;;;;;;21.90;81.10;;;;;;5134278;27;19926;-66
2023/03/28 13:50:53;;;;;;;;;;;21.90;81.10;;;;;;5133349;27;19920;-65
2023/03/28 13:53:19;;;;;;;;;;;21.90;81.20;;;;;;5133052;27;20373;-64
2023/03/28 13:55:44;;;;;;;;;;;21.90;81.30;;;;;;5129731;27;19933;-69
2023/03/28 13:58:11;;;;;;;;;;;21.80;81.40;;;;;;5118856;27;19919;-68
2023/03/28 14:00:36;;;;;;;;;;;21.80;81.40;;;;;;5117312;27;19918;-69
2023/03/28 14:03:12;;;;;;;;;;;21.80;81.40;;;;;;5136361;27;19908;-68
2023/03/28 14:05:41;;;;;;;;;;;21.80;81.50;;;;;;5136757;27;20346;-65
2023/03/28 14:08:13;;;;;;;;;;;21.80;81.50;;;;;;5136320;27;20326;-64
2023/03/28 14:10:40;;;;;;;;;;;21.80;81.40;;;;;;5135230;27;19918;-64
2023/03/28 14:13:09;;;;;;;;;;;21.80;81.30;;;;;;5136104;27;19907;-65
2023/03/28 14:15:35;;;;;;;;;;;21.90;81.40;;;;;;5135627;27;19914;-65
2023/03/28 14:18:01;;;;;;;;;;;21.90;80.60;;;;;;5117468;27;20018;-71
2023/03/28 14:20:27;;;;;;;;;;;21.90;81.30;;;;;;5135409;27;19911;-71
2023/03/28 14:22:53;;;;;;;;;;;21.90;81.00;;;;;;5136158;27;19907;-66
2023/03/28 14:25:20;;;;;;;;;;;21.90;81.00;;;;;;5135825;27;20078;-66
2023/03/28 14:27:47;;;;;;;;;;;21.90;81.10;;;;;;5135726;27;19911;-64